sensor_id;sensor_type;location;lat;lon;timestamp;P1;durP1;ratioP1;P2;durP2;ratioP2
51907;SDS011;39320;53.214;6.556;2023-10-13T00:01:22;18.77;;;16.77;;
51907;SDS011;39320;53.214;6.556;2023-10-13T00:03:48;18.10;;;16.10;;
51907;SDS011;39320;53.214;6.556;2023-10-13T00:06:14;17.83;;;15.98;;
51907;SDS011;39320;53.214;6.556;2023-10-13T00:08:41;17.85;;;16.10;;
51907;SDS011;39320;53.214;6.556;2023-10-13T00:11:11;24.35;;;17.08;;
51907;SDS011;39320;53.214;6.556;2023-10-13T00:13:37;18.27;;;16.38;;
51907;SDS011;39320;53.214;6.556;2023-10-13T00:16:16;21.10;;;17.52;;
51907;SDS011;39320;53.214;6.556;2023-10-13T00:18:52;18.83;;;16.85;;
51907;SDS011;39320;53.214;6.556;2023-10-13T00:21:23;18.38;;;16.50;;
51907;SDS011;39320;53.214;6.556;2023-10-13T00:24:01;17.25;;;15.25;;
51907;SDS011;39320;53.214;6.556;2023-10-13T00:26:31;18.77;;;15.23;;
51907;SDS011;39320;53.214;6.556;2023-10-13T00:29:01;18.77;;;16.00;;
51907;SDS011;39320;53.214;6.556;2023-10-13T00:31:43;17.75;;;14.95;;
51907;SDS011;39320;53.214;6.556;2023-10-13T00:34:13;18.42;;;16.42;;
51907;SDS011;39320;53.214;6.556;2023-10-13T00:36:50;17.15;;;15.38;;
51907;SDS011;39320;53.214;6.556;2023-10-13T00:39:37;16.42;;;14.73;;
51907;SDS011;39320;53.214;6.556;2023-10-13T00:42:09;17.23;;;15.50;;
51907;SDS011;39320;53.214;6.556;2023-10-13T00:44:43;18.85;;;16.77;;
51907;SDS011;39320;53.214;6.556;2023-10-13T00:47:13;17.15;;;15.40;;
51907;SDS011;39320;53.214;6.556;2023-10-13T00:50:03;17.13;;;15.40;;
51907;SDS011;39320;53.214;6.556;2023-10-13T00:52:30;18.10;;;16.33;;
51907;SDS011;39320;53.214;6.556;2023-10-13T00:55:00;18.23;;;16.40;;
51907;SDS011;39320;53.214;6.556;2023-10-13T00:57:26;18.58;;;16.45;;
51907;SDS011;39320;53.214;6.556;2023-10-13T00:59:55;19.52;;;16.13;;
51907;SDS011;39320;53.214;6.556;2023-10-13T01:02:37;16.88;;;15.07;;
51907;SDS011;39320;53.214;6.556;2023-10-13T01:05:06;17.83;;;15.57;;
51907;SDS011;39320;53.214;6.556;2023-10-13T01:07:44;18.35;;;16.02;;
51907;SDS011;39320;53.214;6.556;2023-10-13T01:10:16;18.20;;;16.23;;
51907;SDS011;39320;53.214;6.556;2023-10-13T01:12:42;18.25;;;16.08;;
51907;SDS011;39320;53.214;6.556;2023-10-13T01:15:08;17.65;;;15.13;;
51907;SDS011;39320;53.214;6.556;2023-10-13T01:17:36;19.20;;;17.15;;
51907;SDS011;39320;53.214;6.556;2023-10-13T01:20:08;18.05;;;15.57;;
51907;SDS011;39320;53.214;6.556;2023-10-13T01:22:36;20.02;;;17.98;;
51907;SDS011;39320;53.214;6.556;2023-10-13T01:25:03;17.63;;;15.75;;
51907;SDS011;39320;53.214;6.556;2023-10-13T01:27:35;20.10;;;16.88;;
51907;SDS011;39320;53.214;6.556;2023-10-13T01:30:03;19.10;;;16.45;;
51907;SDS011;39320;53.214;6.556;2023-10-13T01:32:47;17.50;;;15.20;;
51907;SDS011;39320;53.214;6.556;2023-10-13T01:35:20;17.02;;;15.23;;
51907;SDS011;39320;53.214;6.556;2023-10-13T01:38:00;17.90;;;15.57;;
51907;SDS011;39320;53.214;6.556;2023-10-13T01:40:26;16.13;;;14.52;;
51907;SDS011;39320;53.214;6.556;2023-10-13T01:42:54;16.77;;;14.27;;
51907;SDS011;39320;53.214;6.556;2023-10-13T01:45:23;17.08;;;14.80;;
51907;SDS011;39320;53.214;6.556;2023-10-13T01:47:54;16.40;;;13.88;;
51907;SDS011;39320;53.214;6.556;2023-10-13T01:50:20;16.02;;;14.10;;
51907;SDS011;39320;53.214;6.556;2023-10-13T01:52:53;16.27;;;13.07;;
51907;SDS011;39320;53.214;6.556;2023-10-13T01:55:45;14.43;;;12.80;;
51907;SDS011;39320;53.214;6.556;2023-10-13T01:58:12;14.73;;;13.23;;
51907;SDS011;39320;53.214;6.556;2023-10-13T02:00:41;13.73;;;12.25;;
51907;SDS011;39320;53.214;6.556;2023-10-13T02:03:09;12.68;;;11.48;;
51907;SDS011;39320;53.214;6.556;2023-10-13T02:05:44;15.07;;;11.95;;
51907;SDS011;39320;53.214;6.556;2023-10-13T02:08:17;13.88;;;10.93;;
51907;SDS011;39320;53.214;6.556;2023-10-13T02:10:54;12.85;;;11.23;;
51907;SDS011;39320;53.214;6.556;2023-10-13T02:13:22;12.30;;;9.77;;
51907;SDS011;39320;53.214;6.556;2023-10-13T02:15:49;12.23;;;10.18;;
51907;SDS011;39320;53.214;6.556;2023-10-13T02:18:21;12.40;;;10.48;;
51907;SDS011;39320;53.214;6.556;2023-10-13T02:21:02;11.15;;;9.55;;
51907;SDS011;39320;53.214;6.556;2023-10-13T02:23:37;10.73;;;9.13;;
51907;SDS011;39320;53.214;6.556;2023-10-13T02:26:10;10.48;;;9.38;;
51907;SDS011;39320;53.214;6.556;2023-10-13T02:28:41;10.82;;;9.75;;
51907;SDS011;39320;53.214;6.556;2023-10-13T02:31:09;11.00;;;9.27;;
51907;SDS011;39320;53.214;6.556;2023-10-13T02:33:36;10.30;;;9.27;;
51907;SDS011;39320;53.214;6.556;2023-10-13T02:36:09;10.15;;;9.15;;
51907;SDS011;39320;53.214;6.556;2023-10-13T02:38:37;11.05;;;9.52;;
51907;SDS011;39320;53.214;6.556;2023-10-13T02:41:04;9.73;;;8.73;;
51907;SDS011;39320;53.214;6.556;2023-10-13T02:43:52;9.38;;;8.48;;
51907;SDS011;39320;53.214;6.556;2023-10-13T02:46:19;9.27;;;8.25;;
51907;SDS011;39320;53.214;6.556;2023-10-13T02:48:53;9.43;;;8.07;;
51907;SDS011;39320;53.214;6.556;2023-10-13T02:51:20;7.50;;;6.85;;
51907;SDS011;39320;53.214;6.556;2023-10-13T02:54:12;6.93;;;6.25;;
51907;SDS011;39320;53.214;6.556;2023-10-13T02:56:43;8.13;;;7.32;;
51907;SDS011;39320;53.214;6.556;2023-10-13T02:59:15;8.10;;;7.30;;
51907;SDS011;39320;53.214;6.556;2023-10-13T03:01:44;8.43;;;7.70;;
51907;SDS011;39320;53.214;6.556;2023-10-13T03:04:10;9.15;;;8.27;;
51907;SDS011;39320;53.214;6.556;2023-10-13T03:06:38;9.70;;;8.75;;
51907;SDS011;39320;53.214;6.556;2023-10-13T03:09:08;11.07;;;9.70;;
51907;SDS011;39320;53.214;6.556;2023-10-13T03:11:43;10.60;;;9.50;;
51907;SDS011;39320;53.214;6.556;2023-10-13T03:16:52;11.27;;;10.15;;
51907;SDS011;39320;53.214;6.556;2023-10-13T03:19:28;11.48;;;10.38;;
51907;SDS011;39320;53.214;6.556;2023-10-13T03:22:06;11.80;;;10.70;;
51907;SDS011;39320;53.214;6.556;2023-10-13T03:24:36;12.97;;;11.53;;
51907;SDS011;39320;53.214;6.556;2023-10-13T03:27:11;13.90;;;11.63;;
51907;SDS011;39320;53.214;6.556;2023-10-13T03:29:49;15.38;;;12.35;;
51907;SDS011;39320;53.214;6.556;2023-10-13T03:32:25;12.73;;;11.43;;
51907;SDS011;39320;53.214;6.556;2023-10-13T03:34:51;13.55;;;12.25;;
51907;SDS011;39320;53.214;6.556;2023-10-13T03:37:17;13.15;;;11.75;;
51907;SDS011;39320;53.214;6.556;2023-10-13T03:40:02;13.80;;;12.40;;
51907;SDS011;39320;53.214;6.556;2023-10-13T03:42:32;13.10;;;11.75;;
51907;SDS011;39320;53.214;6.556;2023-10-13T03:44:57;12.38;;;10.93;;
51907;SDS011;39320;53.214;6.556;2023-10-13T03:47:23;12.80;;;11.30;;
51907;SDS011;39320;53.214;6.556;2023-10-13T03:49:53;11.05;;;10.05;;
51907;SDS011;39320;53.214;6.556;2023-10-13T03:52:39;11.00;;;9.85;;
51907;SDS011;39320;53.214;6.556;2023-10-13T03:55:04;9.55;;;8.55;;
51907;SDS011;39320;53.214;6.556;2023-10-13T03:57:31;9.00;;;8.10;;
51907;SDS011;39320;53.214;6.556;2023-10-13T03:59:59;8.82;;;8.02;;
51907;SDS011;39320;53.214;6.556;2023-10-13T04:02:33;8.68;;;7.88;;
51907;SDS011;39320;53.214;6.556;2023-10-13T04:04:59;8.52;;;7.50;;
51907;SDS011;39320;53.214;6.556;2023-10-13T04:07:32;7.88;;;7.18;;
51907;SDS011;39320;53.214;6.556;2023-10-13T04:10:05;7.22;;;6.53;;
51907;SDS011;39320;53.214;6.556;2023-10-13T04:13:04;7.70;;;6.90;;
51907;SDS011;39320;53.214;6.556;2023-10-13T04:15:48;7.95;;;7.18;;
51907;SDS011;39320;53.214;6.556;2023-10-13T04:18:32;7.95;;;7.25;;
51907;SDS011;39320;53.214;6.556;2023-10-13T04:21:36;9.00;;;7.57;;
51907;SDS011;39320;53.214;6.556;2023-10-13T04:24:08;9.15;;;8.30;;
51907;SDS011;39320;53.214;6.556;2023-10-13T04:26:48;10.38;;;8.15;;
51907;SDS011;39320;53.214;6.556;2023-10-13T04:29:33;8.60;;;7.80;;
51907;SDS011;39320;53.214;6.556;2023-10-13T04:32:18;8.70;;;7.95;;
51907;SDS011;39320;53.214;6.556;2023-10-13T04:34:56;9.13;;;7.97;;
51907;SDS011;39320;53.214;6.556;2023-10-13T04:37:34;8.05;;;7.25;;
51907;SDS011;39320;53.214;6.556;2023-10-13T04:40:15;7.55;;;6.90;;
51907;SDS011;39320;53.214;6.556;2023-10-13T04:42:44;8.70;;;7.78;;
51907;SDS011;39320;53.214;6.556;2023-10-13T04:45:16;9.55;;;7.45;;
51907;SDS011;39320;53.214;6.556;2023-10-13T04:47:58;8.60;;;7.78;;
51907;SDS011;39320;53.214;6.556;2023-10-13T04:50:58;8.85;;;7.43;;
51907;SDS011;39320;53.214;6.556;2023-10-13T04:53:45;7.60;;;6.90;;
51907;SDS011;39320;53.214;6.556;2023-10-13T04:56:35;8.57;;;7.78;;
51907;SDS011;39320;53.214;6.556;2023-10-13T04:59:06;8.77;;;7.90;;
51907;SDS011;39320;53.214;6.556;2023-10-13T05:02:01;9.45;;;7.63;;
51907;SDS011;39320;53.214;6.556;2023-10-13T05:04:45;8.23;;;7.45;;
51907;SDS011;39320;53.214;6.556;2023-10-13T05:07:30;9.68;;;7.72;;
51907;SDS011;39320;53.214;6.556;2023-10-13T05:10:15;9.88;;;8.05;;
51907;SDS011;39320;53.214;6.556;2023-10-13T05:13:00;8.10;;;7.28;;
51907;SDS011;39320;53.214;6.556;2023-10-13T05:15:44;8.48;;;7.38;;
51907;SDS011;39320;53.214;6.556;2023-10-13T05:18:31;8.93;;;8.02;;
51907;SDS011;39320;53.214;6.556;2023-10-13T05:21:15;8.75;;;7.85;;
51907;SDS011;39320;53.214;6.556;2023-10-13T05:24:00;8.40;;;7.50;;
51907;SDS011;39320;53.214;6.556;2023-10-13T05:26:44;7.70;;;6.95;;
51907;SDS011;39320;53.214;6.556;2023-10-13T05:29:29;6.95;;;6.25;;
51907;SDS011;39320;53.214;6.556;2023-10-13T05:32:13;7.88;;;6.28;;
51907;SDS011;39320;53.214;6.556;2023-10-13T05:34:57;7.28;;;6.57;;
51907;SDS011;39320;53.214;6.556;2023-10-13T05:37:41;6.85;;;6.22;;
51907;SDS011;39320;53.214;6.556;2023-10-13T05:40:25;7.50;;;6.80;;
51907;SDS011;39320;53.214;6.556;2023-10-13T05:43:10;6.60;;;5.97;;
51907;SDS011;39320;53.214;6.556;2023-10-13T05:45:56;5.38;;;4.88;;
51907;SDS011;39320;53.214;6.556;2023-10-13T05:48:29;6.05;;;5.10;;
51907;SDS011;39320;53.214;6.556;2023-10-13T05:51:14;4.22;;;3.83;;
51907;SDS011;39320;53.214;6.556;2023-10-13T05:54:09;3.65;;;3.33;;
51907;SDS011;39320;53.214;6.556;2023-10-13T05:56:48;3.55;;;3.15;;
51907;SDS011;39320;53.214;6.556;2023-10-13T05:59:34;3.78;;;3.47;;
51907;SDS011;39320;53.214;6.556;2023-10-13T06:02:20;3.65;;;3.28;;
51907;SDS011;39320;53.214;6.556;2023-10-13T06:05:06;3.88;;;3.47;;
51907;SDS011;39320;53.214;6.556;2023-10-13T06:07:54;4.20;;;3.60;;
51907;SDS011;39320;53.214;6.556;2023-10-13T06:10:39;3.92;;;3.53;;
51907;SDS011;39320;53.214;6.556;2023-10-13T06:13:23;4.18;;;3.35;;
51907;SDS011;39320;53.214;6.556;2023-10-13T06:16:08;3.95;;;3.58;;
51907;SDS011;39320;53.214;6.556;2023-10-13T06:21:37;2.78;;;2.58;;
51907;SDS011;39320;53.214;6.556;2023-10-13T06:24:22;2.95;;;2.65;;
51907;SDS011;39320;53.214;6.556;2023-10-13T06:27:06;2.92;;;2.63;;
51907;SDS011;39320;53.214;6.556;2023-10-13T06:29:51;3.55;;;2.80;;
51907;SDS011;39320;53.214;6.556;2023-10-13T06:32:19;2.65;;;2.45;;
51907;SDS011;39320;53.214;6.556;2023-10-13T06:34:45;2.90;;;2.60;;
51907;SDS011;39320;53.214;6.556;2023-10-13T06:37:13;3.15;;;2.88;;
51907;SDS011;39320;53.214;6.556;2023-10-13T06:39:49;3.17;;;2.88;;
51907;SDS011;39320;53.214;6.556;2023-10-13T06:42:16;3.13;;;2.83;;
51907;SDS011;39320;53.214;6.556;2023-10-13T06:44:43;3.70;;;3.00;;
51907;SDS011;39320;53.214;6.556;2023-10-13T06:47:11;2.85;;;2.50;;
51907;SDS011;39320;53.214;6.556;2023-10-13T06:49:40;3.58;;;2.50;;
51907;SDS011;39320;53.214;6.556;2023-10-13T06:52:08;4.18;;;2.90;;
51907;SDS011;39320;53.214;6.556;2023-10-13T06:54:38;2.97;;;2.38;;
51907;SDS011;39320;53.214;6.556;2023-10-13T06:57:07;2.72;;;2.53;;
51907;SDS011;39320;53.214;6.556;2023-10-13T06:59:39;2.67;;;2.08;;
51907;SDS011;39320;53.214;6.556;2023-10-13T07:02:05;2.22;;;2.03;;
51907;SDS011;39320;53.214;6.556;2023-10-13T07:04:33;2.47;;;2.28;;
51907;SDS011;39320;53.214;6.556;2023-10-13T07:07:02;2.47;;;1.98;;
51907;SDS011;39320;53.214;6.556;2023-10-13T07:09:30;2.35;;;1.88;;
51907;SDS011;39320;53.214;6.556;2023-10-13T07:12:00;3.47;;;2.33;;
51907;SDS011;39320;53.214;6.556;2023-10-13T07:14:31;2.33;;;2.05;;
51907;SDS011;39320;53.214;6.556;2023-10-13T07:17:05;2.53;;;1.90;;
51907;SDS011;39320;53.214;6.556;2023-10-13T07:19:33;4.40;;;2.30;;
51907;SDS011;39320;53.214;6.556;2023-10-13T07:22:02;2.95;;;2.38;;
51907;SDS011;39320;53.214;6.556;2023-10-13T07:24:48;3.85;;;2.47;;
51907;SDS011;39320;53.214;6.556;2023-10-13T07:27:19;3.78;;;2.35;;
51907;SDS011;39320;53.214;6.556;2023-10-13T07:29:52;4.03;;;2.60;;
51907;SDS011;39320;53.214;6.556;2023-10-13T07:32:30;4.00;;;2.50;;
51907;SDS011;39320;53.214;6.556;2023-10-13T07:34:59;4.35;;;2.38;;
51907;SDS011;39320;53.214;6.556;2023-10-13T07:37:35;3.10;;;2.28;;
51907;SDS011;39320;53.214;6.556;2023-10-13T07:40:00;5.95;;;2.80;;
51907;SDS011;39320;53.214;6.556;2023-10-13T07:42:34;2.53;;;2.15;;
51907;SDS011;39320;53.214;6.556;2023-10-13T07:45:05;2.92;;;2.38;;
51907;SDS011;39320;53.214;6.556;2023-10-13T07:47:31;4.97;;;2.90;;
51907;SDS011;39320;53.214;6.556;2023-10-13T07:49:58;6.35;;;2.63;;
51907;SDS011;39320;53.214;6.556;2023-10-13T07:52:24;7.32;;;2.78;;
51907;SDS011;39320;53.214;6.556;2023-10-13T07:55:01;5.90;;;2.60;;
51907;SDS011;39320;53.214;6.556;2023-10-13T07:57:45;5.00;;;2.80;;
51907;SDS011;39320;53.214;6.556;2023-10-13T08:00:20;4.85;;;2.97;;
51907;SDS011;39320;53.214;6.556;2023-10-13T08:03:05;4.30;;;2.45;;
51907;SDS011;39320;53.214;6.556;2023-10-13T08:05:40;5.93;;;3.20;;
51907;SDS011;39320;53.214;6.556;2023-10-13T08:08:36;3.72;;;2.60;;
51907;SDS011;39320;53.214;6.556;2023-10-13T08:11:11;4.13;;;2.90;;
51907;SDS011;39320;53.214;6.556;2023-10-13T08:16:40;4.53;;;2.78;;
51907;SDS011;39320;53.214;6.556;2023-10-13T08:19:23;3.97;;;2.55;;
51907;SDS011;39320;53.214;6.556;2023-10-13T08:21:56;5.25;;;2.97;;
51907;SDS011;39320;53.214;6.556;2023-10-13T08:24:45;5.45;;;3.30;;
51907;SDS011;39320;53.214;6.556;2023-10-13T08:27:15;4.85;;;3.03;;
51907;SDS011;39320;53.214;6.556;2023-10-13T08:30:00;4.35;;;3.05;;
51907;SDS011;39320;53.214;6.556;2023-10-13T08:32:27;4.30;;;3.17;;
51907;SDS011;39320;53.214;6.556;2023-10-13T08:35:00;4.97;;;2.75;;
51907;SDS011;39320;53.214;6.556;2023-10-13T08:37:32;3.42;;;2.45;;
51907;SDS011;39320;53.214;6.556;2023-10-13T08:40:01;3.97;;;3.10;;
51907;SDS011;39320;53.214;6.556;2023-10-13T08:42:28;4.07;;;2.90;;
51907;SDS011;39320;53.214;6.556;2023-10-13T08:45:07;4.55;;;2.97;;
51907;SDS011;39320;53.214;6.556;2023-10-13T08:47:56;4.32;;;3.35;;
51907;SDS011;39320;53.214;6.556;2023-10-13T08:50:44;3.95;;;3.53;;
51907;SDS011;39320;53.214;6.556;2023-10-13T08:53:18;5.22;;;3.20;;
51907;SDS011;39320;53.214;6.556;2023-10-13T08:56:01;4.95;;;3.17;;
51907;SDS011;39320;53.214;6.556;2023-10-13T08:58:44;7.78;;;3.50;;
51907;SDS011;39320;53.214;6.556;2023-10-13T09:04:07;8.70;;;3.25;;
51907;SDS011;39320;53.214;6.556;2023-10-13T09:06:52;5.13;;;3.38;;
51907;SDS011;39320;53.214;6.556;2023-10-13T09:15:00;5.07;;;3.90;;
51907;SDS011;39320;53.214;6.556;2023-10-13T09:20:18;4.00;;;3.10;;
51907;SDS011;39320;53.214;6.556;2023-10-13T09:25:49;6.18;;;3.80;;
51907;SDS011;39320;53.214;6.556;2023-10-13T09:28:34;4.75;;;4.20;;
51907;SDS011;39320;53.214;6.556;2023-10-13T09:31:02;6.65;;;4.50;;
51907;SDS011;39320;53.214;6.556;2023-10-13T09:33:32;7.28;;;3.97;;
51907;SDS011;39320;53.214;6.556;2023-10-13T09:36:04;7.13;;;4.05;;
51907;SDS011;39320;53.214;6.556;2023-10-13T09:38:32;5.45;;;3.95;;
51907;SDS011;39320;53.214;6.556;2023-10-13T09:41:05;6.68;;;4.07;;
51907;SDS011;39320;53.214;6.556;2023-10-13T09:43:43;5.78;;;3.90;;
51907;SDS011;39320;53.214;6.556;2023-10-13T09:46:10;4.43;;;3.38;;
51907;SDS011;39320;53.214;6.556;2023-10-13T09:48:46;5.82;;;3.67;;
51907;SDS011;39320;53.214;6.556;2023-10-13T09:51:16;5.13;;;3.40;;
51907;SDS011;39320;53.214;6.556;2023-10-13T09:54:50;4.97;;;3.53;;
51907;SDS011;39320;53.214;6.556;2023-10-13T09:56:53;5.50;;;4.07;;
51907;SDS011;39320;53.214;6.556;2023-10-13T09:59:24;7.22;;;3.80;;
51907;SDS011;39320;53.214;6.556;2023-10-13T10:02:01;5.45;;;3.80;;
51907;SDS011;39320;53.214;6.556;2023-10-13T10:04:34;5.13;;;3.45;;
51907;SDS011;39320;53.214;6.556;2023-10-13T10:07:23;5.75;;;3.65;;
51907;SDS011;39320;53.214;6.556;2023-10-13T10:09:57;4.70;;;3.17;;
51907;SDS011;39320;53.214;6.556;2023-10-13T10:17:58;5.38;;;2.90;;
51907;SDS011;39320;53.214;6.556;2023-10-13T10:20:29;5.53;;;3.40;;
51907;SDS011;39320;53.214;6.556;2023-10-13T10:23:06;6.30;;;3.35;;
51907;SDS011;39320;53.214;6.556;2023-10-13T10:25:47;4.68;;;3.28;;
51907;SDS011;39320;53.214;6.556;2023-10-13T10:28:15;6.10;;;3.05;;
51907;SDS011;39320;53.214;6.556;2023-10-13T10:30:41;6.53;;;3.17;;
51907;SDS011;39320;53.214;6.556;2023-10-13T10:33:09;5.20;;;2.80;;
51907;SDS011;39320;53.214;6.556;2023-10-13T10:35:44;4.15;;;3.33;;
51907;SDS011;39320;53.214;6.556;2023-10-13T10:38:12;6.40;;;3.25;;
51907;SDS011;39320;53.214;6.556;2023-10-13T10:41:01;6.07;;;3.55;;
51907;SDS011;39320;53.214;6.556;2023-10-13T10:46:25;6.60;;;3.10;;
51907;SDS011;39320;53.214;6.556;2023-10-13T10:48:53;5.22;;;3.00;;
51907;SDS011;39320;53.214;6.556;2023-10-13T10:51:26;6.47;;;3.20;;
51907;SDS011;39320;53.214;6.556;2023-10-13T10:53:56;6.53;;;3.10;;
51907;SDS011;39320;53.214;6.556;2023-10-13T10:56:26;4.20;;;3.10;;
51907;SDS011;39320;53.214;6.556;2023-10-13T10:59:00;4.35;;;2.88;;
51907;SDS011;39320;53.214;6.556;2023-10-13T11:01:27;7.78;;;3.53;;
51907;SDS011;39320;53.214;6.556;2023-10-13T11:04:04;4.85;;;3.28;;
51907;SDS011;39320;53.214;6.556;2023-10-13T11:06:37;7.78;;;3.17;;
51907;SDS011;39320;53.214;6.556;2023-10-13T11:09:11;6.03;;;3.38;;
51907;SDS011;39320;53.214;6.556;2023-10-13T11:11:46;5.95;;;3.63;;
51907;SDS011;39320;53.214;6.556;2023-10-13T11:14:21;6.03;;;3.20;;
51907;SDS011;39320;53.214;6.556;2023-10-13T11:16:53;5.45;;;3.38;;
51907;SDS011;39320;53.214;6.556;2023-10-13T11:19:21;5.38;;;2.58;;
51907;SDS011;39320;53.214;6.556;2023-10-13T11:22:09;5.10;;;3.10;;
51907;SDS011;39320;53.214;6.556;2023-10-13T11:24:42;7.95;;;3.13;;
51907;SDS011;39320;53.214;6.556;2023-10-13T11:27:15;6.97;;;3.42;;
51907;SDS011;39320;53.214;6.556;2023-10-13T11:30:04;7.03;;;3.20;;
51907;SDS011;39320;53.214;6.556;2023-10-13T11:32:37;6.45;;;3.30;;
51907;SDS011;39320;53.214;6.556;2023-10-13T11:35:07;5.18;;;3.45;;
51907;SDS011;39320;53.214;6.556;2023-10-13T11:37:51;5.55;;;3.22;;
51907;SDS011;39320;53.214;6.556;2023-10-13T11:40:37;5.57;;;2.97;;
51907;SDS011;39320;53.214;6.556;2023-10-13T11:43:24;5.45;;;2.70;;
51907;SDS011;39320;53.214;6.556;2023-10-13T11:45:51;5.55;;;2.70;;
51907;SDS011;39320;53.214;6.556;2023-10-13T11:48:39;5.90;;;3.47;;
51907;SDS011;39320;53.214;6.556;2023-10-13T11:51:13;7.70;;;3.03;;
51907;SDS011;39320;53.214;6.556;2023-10-13T11:53:48;7.70;;;3.45;;
51907;SDS011;39320;53.214;6.556;2023-10-13T11:56:17;7.28;;;3.80;;
51907;SDS011;39320;53.214;6.556;2023-10-13T11:58:47;5.60;;;2.95;;
51907;SDS011;39320;53.214;6.556;2023-10-13T12:01:13;7.55;;;3.45;;
51907;SDS011;39320;53.214;6.556;2023-10-13T12:03:44;3.80;;;2.97;;
51907;SDS011;39320;53.214;6.556;2023-10-13T12:06:30;4.93;;;3.20;;
51907;SDS011;39320;53.214;6.556;2023-10-13T12:11:44;7.50;;;3.38;;
51907;SDS011;39320;53.214;6.556;2023-10-13T12:14:11;5.63;;;3.35;;
51907;SDS011;39320;53.214;6.556;2023-10-13T12:16:52;7.35;;;3.38;;
51907;SDS011;39320;53.214;6.556;2023-10-13T12:19:22;5.00;;;3.08;;
51907;SDS011;39320;53.214;6.556;2023-10-13T12:21:49;5.95;;;3.30;;
51907;SDS011;39320;53.214;6.556;2023-10-13T12:24:19;6.75;;;3.15;;
51907;SDS011;39320;53.214;6.556;2023-10-13T12:27:08;6.43;;;3.50;;
51907;SDS011;39320;53.214;6.556;2023-10-13T12:29:49;9.13;;;3.80;;
51907;SDS011;39320;53.214;6.556;2023-10-13T12:32:21;7.22;;;3.70;;
51907;SDS011;39320;53.214;6.556;2023-10-13T12:34:50;4.82;;;3.10;;
51907;SDS011;39320;53.214;6.556;2023-10-13T12:37:29;5.72;;;3.50;;
51907;SDS011;39320;53.214;6.556;2023-10-13T12:40:04;6.53;;;3.83;;
51907;SDS011;39320;53.214;6.556;2023-10-13T12:42:50;4.57;;;3.65;;
51907;SDS011;39320;53.214;6.556;2023-10-13T12:45:40;4.60;;;3.22;;
51907;SDS011;39320;53.214;6.556;2023-10-13T12:48:26;6.38;;;3.90;;
51907;SDS011;39320;53.214;6.556;2023-10-13T12:51:10;7.03;;;3.13;;
51907;SDS011;39320;53.214;6.556;2023-10-13T12:54:06;6.15;;;3.83;;
51907;SDS011;39320;53.214;6.556;2023-10-13T12:56:44;5.93;;;3.83;;
51907;SDS011;39320;53.214;6.556;2023-10-13T12:59:11;7.30;;;3.50;;
51907;SDS011;39320;53.214;6.556;2023-10-13T13:01:40;6.72;;;3.92;;
51907;SDS011;39320;53.214;6.556;2023-10-13T13:04:09;6.78;;;4.60;;
51907;SDS011;39320;53.214;6.556;2023-10-13T13:06:57;8.52;;;4.25;;
51907;SDS011;39320;53.214;6.556;2023-10-13T13:09:22;6.65;;;3.70;;
51907;SDS011;39320;53.214;6.556;2023-10-13T13:11:54;6.80;;;4.10;;
51907;SDS011;39320;53.214;6.556;2023-10-13T13:14:23;6.13;;;4.00;;
51907;SDS011;39320;53.214;6.556;2023-10-13T13:16:57;5.85;;;4.45;;
51907;SDS011;39320;53.214;6.556;2023-10-13T13:19:32;4.78;;;3.92;;
51907;SDS011;39320;53.214;6.556;2023-10-13T13:22:04;6.85;;;3.58;;
51907;SDS011;39320;53.214;6.556;2023-10-13T13:24:34;8.02;;;4.15;;
51907;SDS011;39320;53.214;6.556;2023-10-13T13:27:00;8.90;;;4.40;;
51907;SDS011;39320;53.214;6.556;2023-10-13T13:29:30;8.15;;;4.78;;
51907;SDS011;39320;53.214;6.556;2023-10-13T13:31:56;10.32;;;4.20;;
51907;SDS011;39320;53.214;6.556;2023-10-13T13:34:22;5.78;;;4.22;;
51907;SDS011;39320;53.214;6.556;2023-10-13T13:36:48;6.03;;;4.00;;
51907;SDS011;39320;53.214;6.556;2023-10-13T13:39:18;8.77;;;4.35;;
51907;SDS011;39320;53.214;6.556;2023-10-13T13:41:53;7.97;;;4.47;;
51907;SDS011;39320;53.214;6.556;2023-10-13T13:44:25;6.60;;;4.80;;
51907;SDS011;39320;53.214;6.556;2023-10-13T13:47:01;6.97;;;4.43;;
51907;SDS011;39320;53.214;6.556;2023-10-13T13:49:40;6.82;;;4.47;;
51907;SDS011;39320;53.214;6.556;2023-10-13T13:52:11;7.15;;;4.63;;
51907;SDS011;39320;53.214;6.556;2023-10-13T13:54:43;6.97;;;3.95;;
51907;SDS011;39320;53.214;6.556;2023-10-13T13:57:09;5.65;;;4.10;;
51907;SDS011;39320;53.214;6.556;2023-10-13T13:59:34;4.38;;;3.83;;
51907;SDS011;39320;53.214;6.556;2023-10-13T14:02:04;6.85;;;4.15;;
51907;SDS011;39320;53.214;6.556;2023-10-13T14:04:44;6.75;;;4.05;;
51907;SDS011;39320;53.214;6.556;2023-10-13T14:07:12;5.63;;;3.58;;
51907;SDS011;39320;53.214;6.556;2023-10-13T14:09:40;8.07;;;3.88;;
51907;SDS011;39320;53.214;6.556;2023-10-13T14:12:09;6.55;;;3.75;;
51907;SDS011;39320;53.214;6.556;2023-10-13T14:14:53;5.93;;;3.83;;
51907;SDS011;39320;53.214;6.556;2023-10-13T14:17:22;4.53;;;3.88;;
51907;SDS011;39320;53.214;6.556;2023-10-13T14:19:55;8.20;;;4.18;;
51907;SDS011;39320;53.214;6.556;2023-10-13T14:22:22;5.32;;;3.92;;
51907;SDS011;39320;53.214;6.556;2023-10-13T14:24:50;6.53;;;3.60;;
51907;SDS011;39320;53.214;6.556;2023-10-13T14:27:23;7.05;;;4.10;;
51907;SDS011;39320;53.214;6.556;2023-10-13T14:29:51;6.63;;;4.40;;
51907;SDS011;39320;53.214;6.556;2023-10-13T14:32:21;5.97;;;3.63;;
51907;SDS011;39320;53.214;6.556;2023-10-13T14:34:50;8.35;;;4.35;;
51907;SDS011;39320;53.214;6.556;2023-10-13T14:37:22;6.03;;;4.28;;
51907;SDS011;39320;53.214;6.556;2023-10-13T14:39:54;5.47;;;3.92;;
51907;SDS011;39320;53.214;6.556;2023-10-13T14:42:26;5.95;;;3.65;;
51907;SDS011;39320;53.214;6.556;2023-10-13T14:44:52;5.20;;;3.65;;
51907;SDS011;39320;53.214;6.556;2023-10-13T14:47:24;6.32;;;3.58;;
51907;SDS011;39320;53.214;6.556;2023-10-13T14:49:54;5.93;;;3.80;;
51907;SDS011;39320;53.214;6.556;2023-10-13T14:52:21;5.45;;;3.72;;
51907;SDS011;39320;53.214;6.556;2023-10-13T14:54:47;6.28;;;3.53;;
51907;SDS011;39320;53.214;6.556;2023-10-13T14:57:20;7.00;;;4.00;;
51907;SDS011;39320;53.214;6.556;2023-10-13T14:59:50;7.93;;;3.65;;
51907;SDS011;39320;53.214;6.556;2023-10-13T15:02:16;5.18;;;3.20;;
51907;SDS011;39320;53.214;6.556;2023-10-13T15:04:42;5.60;;;3.38;;
51907;SDS011;39320;53.214;6.556;2023-10-13T15:07:08;6.60;;;3.50;;
51907;SDS011;39320;53.214;6.556;2023-10-13T15:09:34;7.40;;;3.85;;
51907;SDS011;39320;53.214;6.556;2023-10-13T15:11:59;6.07;;;3.40;;
51907;SDS011;39320;53.214;6.556;2023-10-13T15:14:30;4.40;;;3.53;;
51907;SDS011;39320;53.214;6.556;2023-10-13T15:16:58;6.47;;;3.47;;
51907;SDS011;39320;53.214;6.556;2023-10-13T15:19:25;6.80;;;3.85;;
51907;SDS011;39320;53.214;6.556;2023-10-13T15:21:54;7.25;;;3.92;;
51907;SDS011;39320;53.214;6.556;2023-10-13T15:24:20;5.30;;;3.50;;
51907;SDS011;39320;53.214;6.556;2023-10-13T15:26:47;6.72;;;3.55;;
51907;SDS011;39320;53.214;6.556;2023-10-13T15:29:14;6.35;;;3.67;;
51907;SDS011;39320;53.214;6.556;2023-10-13T15:31:44;7.15;;;3.80;;
51907;SDS011;39320;53.214;6.556;2023-10-13T15:34:39;5.30;;;3.72;;
51907;SDS011;39320;53.214;6.556;2023-10-13T15:37:05;6.50;;;3.78;;
51907;SDS011;39320;53.214;6.556;2023-10-13T15:39:31;7.78;;;3.95;;
51907;SDS011;39320;53.214;6.556;2023-10-13T15:41:57;8.10;;;3.78;;
51907;SDS011;39320;53.214;6.556;2023-10-13T15:44:26;5.18;;;3.17;;
51907;SDS011;39320;53.214;6.556;2023-10-13T15:46:55;6.18;;;3.53;;
51907;SDS011;39320;53.214;6.556;2023-10-13T15:49:22;6.15;;;4.25;;
51907;SDS011;39320;53.214;6.556;2023-10-13T15:51:48;6.82;;;4.03;;
51907;SDS011;39320;53.214;6.556;2023-10-13T15:54:14;5.25;;;3.95;;
51907;SDS011;39320;53.214;6.556;2023-10-13T15:56:43;6.03;;;4.25;;
51907;SDS011;39320;53.214;6.556;2023-10-13T15:59:10;6.65;;;3.80;;